Etusivu
METAR-TAF:

METAR-TAF

Lentoasemat :

Tambacounda, Senegal

Leveyspiiri: 13-46N, Pituuspiiri: 013-41W, korkeus merenpinnasta: 49 m

Tämänhetkinen sää

Tämä raportti tehtiin 51 minuuttia sitten, kello 08.00 UTC
Tuuli 6 kn etelästä/lounaasta
Lämpötila 25°C
Kosteus 94%
Ilmanpaine 1014 hPa
Näkyvyys 10 km tai enemmän
Hajonneita pilviä 1500 ft:n korkeudessa

METAR: GOTT 200800Z 21006KT 9999 BKN015 25/24 Q1014 RETS

Aika: 08:51 (08:51 UTC)


TAF: puuttuu

Säähavainnot ja -ennusteet yli 4000 lentoasemalta (METAR- ja TAF-raportit).

Käytössä olevat sääasemat on merkitty karttaan keltaisilla ja punaisilla pisteillä.

Aseta hiiri pisteen päälle nähdäksesi sääaseman nimen.

Klikkaa sitten nähdäksesi säähavainnot ja -ennusteet.

Kartan vaihtaminen: klikkaa mustalla rastilla varustettuja vihreitä pisteitä, niin voit zoomata sisään; viivalla varustettua vihreää pistettä, niin voit zoomata ulos tai vihreitä nuolia, niin pääset viereisille kartoille.


METAR-TAF: